createdAt,value
2024-03-14T00:01:49.828Z,0.22
2024-03-14T00:04:51.725Z,0.28
2024-03-14T00:07:53.574Z,0.20
2024-03-14T00:10:55.639Z,0.13
2024-03-14T00:13:57.551Z,0.30
2024-03-14T00:16:59.364Z,0.30
2024-03-14T00:20:01.504Z,0.10
2024-03-14T00:23:03.273Z,0.30
2024-03-14T00:26:05.068Z,0.30
2024-03-14T00:29:06.880Z,0.32
2024-03-14T00:32:08.758Z,0.28
2024-03-14T00:35:10.555Z,0.20
2024-03-14T00:38:12.347Z,0.10
2024-03-14T00:41:14.185Z,0.38
2024-03-14T00:44:16.018Z,0.20
2024-03-14T00:47:17.817Z,0.30
2024-03-14T00:50:19.613Z,0.38
2024-03-14T00:53:21.385Z,0.10
2024-03-14T00:56:23.216Z,0.20
2024-03-14T00:59:25.081Z,0.20
2024-03-14T01:02:26.887Z,0.22
2024-03-14T01:05:28.683Z,0.10
2024-03-14T01:08:30.494Z,0.00
2024-03-14T01:11:32.839Z,0.10
2024-03-14T01:14:34.734Z,0.20
2024-03-14T01:17:36.643Z,0.10
2024-03-14T01:20:38.750Z,0.10
2024-03-14T01:23:40.536Z,0.20
2024-03-14T01:26:42.347Z,0.20
2024-03-14T01:29:44.278Z,0.20
2024-03-14T01:32:46.208Z,0.30
2024-03-14T01:35:48.311Z,0.10
2024-03-14T01:38:50.164Z,0.15
2024-03-14T01:41:51.989Z,0.10
2024-03-14T01:44:55.525Z,0.30
2024-03-14T01:47:57.475Z,0.20
2024-03-14T01:50:59.360Z,0.10
2024-03-14T01:54:01.323Z,0.10
2024-03-14T01:57:03.403Z,0.17
2024-03-14T02:00:05.762Z,0.20
2024-03-14T02:03:07.632Z,0.00
2024-03-14T02:06:09.755Z,0.00
2024-03-14T02:12:13.365Z,0.10
2024-03-14T02:15:15.405Z,0.13
2024-03-14T02:18:17.310Z,0.70
2024-03-14T02:21:19.187Z,0.30
2024-03-14T02:24:21.107Z,0.10
2024-03-14T02:27:23.252Z,0.40
2024-03-14T02:30:25.208Z,0.30
2024-03-14T02:33:27.211Z,0.10
2024-03-14T02:36:29.091Z,0.30
2024-03-14T02:39:31.002Z,0.20
2024-03-14T02:42:32.907Z,0.20
2024-03-14T02:45:34.782Z,0.45
2024-03-14T02:48:36.660Z,0.20
2024-03-14T02:51:38.569Z,0.40
2024-03-14T02:54:40.349Z,0.55
2024-03-14T02:57:42.144Z,0.30
2024-03-14T03:00:43.965Z,0.45
2024-03-14T03:03:45.748Z,0.35
2024-03-14T03:06:47.553Z,0.43
2024-03-14T03:09:55.454Z,0.47
2024-03-14T03:12:57.398Z,0.50
2024-03-14T03:15:59.152Z,0.52
2024-03-14T03:19:01.004Z,0.32
2024-03-14T03:22:02.835Z,0.43
2024-03-14T03:25:05.058Z,0.57
2024-03-14T03:28:06.817Z,0.45
2024-03-14T03:31:08.679Z,0.38
2024-03-14T03:34:10.483Z,0.30
2024-03-14T03:37:12.385Z,0.80
2024-03-14T03:40:14.239Z,0.40
2024-03-14T03:43:16.042Z,0.60
2024-03-14T03:46:17.869Z,0.45
2024-03-14T03:49:19.718Z,0.85
2024-03-14T03:52:21.540Z,0.57
2024-03-14T03:55:23.370Z,0.50
2024-03-14T03:58:25.177Z,0.47
2024-03-14T04:01:27.021Z,0.68
2024-03-14T04:04:29.510Z,0.70
2024-03-14T04:07:31.392Z,0.77
2024-03-14T04:10:33.190Z,0.70
2024-03-14T04:13:35.060Z,0.80
2024-03-14T04:16:36.864Z,1.30
2024-03-14T04:19:38.717Z,0.90
2024-03-14T04:22:40.522Z,0.82
2024-03-14T04:25:42.363Z,1.13
2024-03-14T04:28:44.176Z,0.85
2024-03-14T04:31:46.005Z,1.30
2024-03-14T04:34:47.817Z,1.83
2024-03-14T04:37:49.617Z,1.42
2024-03-14T04:40:51.455Z,1.70
2024-03-14T04:43:53.265Z,1.20
2024-03-14T04:46:55.053Z,1.70
2024-03-14T04:49:56.878Z,0.93
2024-03-14T04:52:58.679Z,1.10
2024-03-14T04:56:00.508Z,1.67
2024-03-14T04:59:02.355Z,1.13
2024-03-14T05:02:04.278Z,1.77
2024-03-14T05:05:06.626Z,1.33
2024-03-14T05:11:10.055Z,1.35
2024-03-14T05:14:11.883Z,1.38
2024-03-14T05:17:13.789Z,0.80
2024-03-14T05:20:16.179Z,1.40
2024-03-14T05:23:18.208Z,0.98
2024-03-14T05:26:20.024Z,1.15
2024-03-14T05:29:21.864Z,0.82
2024-03-14T05:32:23.671Z,1.60
2024-03-14T05:35:25.443Z,1.00
2024-03-14T05:38:27.339Z,1.13
2024-03-14T05:41:29.153Z,0.90
2024-03-14T05:44:31.047Z,1.52
2024-03-14T05:47:32.850Z,1.20
2024-03-14T05:50:34.690Z,1.33
2024-03-14T05:53:36.474Z,1.05
2024-03-14T05:56:38.296Z,1.13
2024-03-14T05:59:40.116Z,1.15
2024-03-14T06:02:41.929Z,1.55
2024-03-14T06:05:43.792Z,1.67
2024-03-14T06:08:45.756Z,1.05
2024-03-14T06:11:47.608Z,1.65
2024-03-14T06:14:49.475Z,1.30
2024-03-14T06:17:51.347Z,1.60
2024-03-14T06:20:53.240Z,1.50
2024-03-14T06:23:55.113Z,1.45
2024-03-14T06:26:57.043Z,1.63
2024-03-14T06:29:58.851Z,2.05
2024-03-14T06:33:00.863Z,1.05
2024-03-14T06:36:02.751Z,1.23
2024-03-14T06:39:04.721Z,0.90
2024-03-14T06:42:06.772Z,1.70
2024-03-14T06:45:08.883Z,1.95
2024-03-14T06:48:10.959Z,1.80
2024-03-14T06:51:13.024Z,1.67
2024-03-14T06:54:14.930Z,1.95
2024-03-14T06:57:16.916Z,1.67
2024-03-14T07:00:19.509Z,1.40
2024-03-14T07:03:21.724Z,1.50
2024-03-14T07:06:23.552Z,1.60
2024-03-14T07:09:32.715Z,1.85
2024-03-14T07:12:34.693Z,1.35
2024-03-14T07:15:36.670Z,1.50
2024-03-14T07:18:38.743Z,1.60
2024-03-14T07:21:40.706Z,2.05
2024-03-14T07:24:42.754Z,1.52
2024-03-14T07:27:44.745Z,1.27
2024-03-14T07:30:46.611Z,1.63
2024-03-14T07:33:48.605Z,1.63
2024-03-14T07:36:50.400Z,1.90
2024-03-14T07:39:52.197Z,1.30
2024-03-14T07:42:54.017Z,1.52
2024-03-14T07:45:56.005Z,1.60
2024-03-14T07:48:57.898Z,1.25
2024-03-14T07:51:59.767Z,1.40
2024-03-14T07:55:01.666Z,1.23
2024-03-14T07:58:03.583Z,1.50
2024-03-14T08:01:05.448Z,1.55
2024-03-14T08:04:07.304Z,1.40
2024-03-14T08:07:09.240Z,1.38
2024-03-14T08:10:17.736Z,1.23
2024-03-14T08:16:21.141Z,1.35
2024-03-14T08:19:22.948Z,1.52
2024-03-14T08:22:25.072Z,1.85
2024-03-14T08:25:26.905Z,1.52
2024-03-14T08:28:28.858Z,2.05
2024-03-14T08:31:30.708Z,2.53
2024-03-14T08:34:32.732Z,2.03
2024-03-14T08:37:34.567Z,1.60
2024-03-14T08:40:36.951Z,1.80
2024-03-14T08:43:38.750Z,1.80
2024-03-14T08:46:40.610Z,1.73
2024-03-14T08:49:42.442Z,2.22
2024-03-14T08:52:44.456Z,1.05
2024-03-14T08:55:46.263Z,1.17
2024-03-14T08:58:48.116Z,1.17
2024-03-14T09:01:50.015Z,1.63
2024-03-14T09:04:51.831Z,1.08
2024-03-14T09:08:03.917Z,1.30
2024-03-14T09:11:09.939Z,1.67
2024-03-14T09:14:11.936Z,1.10
2024-03-14T09:17:16.218Z,1.67
2024-03-14T09:20:18.032Z,1.38
2024-03-14T09:23:20.033Z,1.10
2024-03-14T09:26:24.309Z,1.58
2024-03-14T09:29:28.032Z,1.95
2024-03-14T09:32:31.234Z,1.27
2024-03-14T09:35:33.493Z,1.27
2024-03-14T09:38:35.276Z,1.23
2024-03-14T09:41:37.145Z,1.60
2024-03-14T09:44:39.048Z,1.38
2024-03-14T09:47:40.972Z,1.25
2024-03-14T09:50:43.578Z,1.50
2024-03-14T09:53:46.344Z,0.82
2024-03-14T09:56:48.425Z,1.35
2024-03-14T09:59:51.009Z,1.23
2024-03-14T10:02:52.896Z,1.90
2024-03-14T10:05:54.750Z,0.98
2024-03-14T10:08:58.232Z,1.00
2024-03-14T10:12:00.221Z,1.48
2024-03-14T10:15:04.294Z,1.30
2024-03-14T10:18:08.333Z,1.55
2024-03-14T10:21:10.255Z,2.08
2024-03-14T10:24:12.907Z,1.17
2024-03-14T10:27:14.861Z,1.58
2024-03-14T10:30:17.506Z,1.27
2024-03-14T10:33:19.998Z,1.20
2024-03-14T10:36:21.922Z,1.20
2024-03-14T10:39:23.885Z,2.15
2024-03-14T10:42:25.880Z,1.67
2024-03-14T10:45:30.259Z,1.30
2024-03-14T10:48:32.271Z,1.08
2024-03-14T10:51:34.249Z,1.00
2024-03-14T10:54:36.243Z,1.08
2024-03-14T11:00:51.092Z,1.42
2024-03-14T11:03:53.204Z,1.10
2024-03-14T11:06:55.122Z,0.82
2024-03-14T11:10:05.832Z,0.73
2024-03-14T11:13:10.489Z,1.10
2024-03-14T11:16:12.381Z,0.80
2024-03-14T11:19:14.556Z,1.48
2024-03-14T11:25:21.813Z,1.90
2024-03-14T11:28:23.821Z,1.48
2024-03-14T11:31:25.701Z,1.25
2024-03-14T11:34:27.520Z,1.15
2024-03-14T11:37:49.166Z,1.00
2024-03-14T11:40:50.993Z,1.40
2024-03-14T11:43:52.838Z,1.02
2024-03-14T11:46:54.653Z,1.00
2024-03-14T11:49:56.611Z,1.40
2024-03-14T11:53:01.866Z,1.40
2024-03-14T11:56:10.237Z,0.93
2024-03-14T11:59:14.836Z,0.98
2024-03-14T12:02:21.881Z,1.08
2024-03-14T12:05:24.605Z,1.00
2024-03-14T12:11:49.292Z,1.02
2024-03-14T12:14:56.118Z,1.00
2024-03-14T12:17:58.433Z,1.00
2024-03-14T12:24:00.460Z,0.85
2024-03-14T12:27:02.818Z,1.38
2024-03-14T12:30:06.247Z,1.10
2024-03-14T12:33:08.389Z,1.15
2024-03-14T12:36:10.558Z,1.27
2024-03-14T12:42:17.330Z,0.88
2024-03-14T12:45:19.309Z,1.00
2024-03-14T12:57:27.479Z,0.98
2024-03-14T13:00:29.337Z,1.35
2024-03-14T13:06:40.345Z,1.25
2024-03-14T13:12:57.219Z,0.70
2024-03-14T13:16:12.688Z,0.90
2024-03-14T13:19:14.534Z,1.08
2024-03-14T13:22:16.421Z,0.75
2024-03-14T13:25:18.468Z,1.60
2024-03-14T13:31:21.950Z,1.08
2024-03-14T13:34:23.773Z,0.68
2024-03-14T13:37:25.641Z,0.57
2024-03-14T13:40:27.969Z,0.80
2024-03-14T13:43:29.866Z,1.10
2024-03-14T13:46:31.827Z,1.17
2024-03-14T13:49:36.589Z,0.85
2024-03-14T13:52:41.459Z,0.70
2024-03-14T13:55:43.312Z,1.08
2024-03-14T13:58:45.411Z,1.08
2024-03-14T14:01:47.450Z,1.05
2024-03-14T14:08:07.068Z,1.02
2024-03-14T14:14:27.197Z,0.82
2024-03-14T14:17:31.022Z,1.00
2024-03-14T14:20:33.175Z,0.77
2024-03-14T14:26:49.471Z,0.80
2024-03-14T14:29:53.478Z,0.73
2024-03-14T14:32:56.325Z,1.23
2024-03-14T14:35:58.348Z,1.30
2024-03-14T14:39:00.247Z,0.90
2024-03-14T14:42:02.073Z,0.70
2024-03-14T14:45:04.413Z,1.08
2024-03-14T14:51:20.786Z,0.77
2024-03-14T14:57:43.974Z,0.90
2024-03-14T15:00:46.118Z,1.25
2024-03-14T15:06:50.956Z,0.90
2024-03-14T15:09:59.835Z,0.70
2024-03-14T15:13:05.116Z,1.00
2024-03-14T15:16:16.261Z,1.17
2024-03-14T15:19:20.011Z,0.80
2024-03-14T15:22:22.138Z,0.70
2024-03-14T15:25:37.806Z,1.40
2024-03-14T15:31:55.588Z,0.75
2024-03-14T15:38:07.833Z,1.10
2024-03-14T15:44:17.828Z,0.77
2024-03-14T15:47:19.705Z,0.90
2024-03-14T15:53:48.782Z,0.88
2024-03-14T15:56:50.694Z,1.40
2024-03-14T15:59:54.859Z,0.90
2024-03-14T16:02:56.909Z,1.90
2024-03-14T16:05:59.243Z,1.25
2024-03-14T16:09:02.686Z,1.35
2024-03-14T16:12:05.592Z,1.05
2024-03-14T16:18:27.133Z,1.63
2024-03-14T16:24:30.690Z,1.00
2024-03-14T16:33:42.394Z,1.23
2024-03-14T16:36:44.429Z,1.42
2024-03-14T16:42:57.867Z,1.45
2024-03-14T16:46:01.060Z,1.60
2024-03-14T16:49:04.103Z,1.30
2024-03-14T16:52:06.133Z,1.20
2024-03-14T16:55:08.150Z,1.60
2024-03-14T16:58:09.948Z,1.73
2024-03-14T17:01:12.211Z,1.63
2024-03-14T17:04:14.090Z,1.58
2024-03-14T17:07:15.938Z,3.08
2024-03-14T17:10:18.037Z,3.78
2024-03-14T17:13:20.024Z,2.80
2024-03-14T17:16:21.874Z,1.60
2024-03-14T17:19:26.779Z,2.45
2024-03-14T17:22:28.623Z,1.60
2024-03-14T17:25:30.450Z,2.00
2024-03-14T17:28:32.266Z,1.50
2024-03-14T17:31:34.134Z,1.50
2024-03-14T17:34:35.965Z,1.95
2024-03-14T17:37:37.843Z,1.83
2024-03-14T17:40:39.637Z,1.80
2024-03-14T17:43:41.493Z,2.35
2024-03-14T17:46:43.361Z,1.83
2024-03-14T17:49:45.294Z,2.63
2024-03-14T17:52:47.346Z,1.50
2024-03-14T17:58:51.513Z,2.25
2024-03-14T18:01:53.399Z,2.80
2024-03-14T18:04:55.557Z,2.58
2024-03-14T18:07:57.748Z,2.72
2024-03-14T18:14:01.472Z,2.95
2024-03-14T18:17:03.304Z,1.75
2024-03-14T18:20:05.426Z,1.70
2024-03-14T18:23:07.471Z,3.83
2024-03-14T18:26:09.569Z,2.47
2024-03-14T18:29:11.420Z,1.90
2024-03-14T18:32:13.337Z,1.92
2024-03-14T18:35:15.158Z,2.17
2024-03-14T18:38:17.003Z,2.08
2024-03-14T18:41:18.826Z,1.67
2024-03-14T18:44:20.661Z,2.58
2024-03-14T18:47:22.518Z,1.80
2024-03-14T18:50:24.364Z,1.70
2024-03-14T18:53:31.908Z,1.73
2024-03-14T18:56:36.740Z,2.13
2024-03-14T18:59:38.550Z,1.80
2024-03-14T19:02:40.596Z,2.25
2024-03-14T19:05:42.431Z,1.88
2024-03-14T19:08:44.249Z,1.50
2024-03-14T19:11:46.196Z,1.88
2024-03-14T19:14:48.172Z,1.45
2024-03-14T19:17:50.007Z,2.17
2024-03-14T19:20:51.888Z,2.50
2024-03-14T19:23:54.663Z,1.75
2024-03-14T19:26:56.769Z,1.95
2024-03-14T19:29:58.905Z,1.23
2024-03-14T19:33:00.918Z,1.85
2024-03-14T19:36:02.990Z,2.08
2024-03-14T19:39:04.923Z,2.03
2024-03-14T19:42:06.829Z,1.58
2024-03-14T19:45:08.729Z,1.80
2024-03-14T19:48:10.607Z,2.15
2024-03-14T19:51:12.567Z,1.60
2024-03-14T19:54:14.439Z,1.30
2024-03-14T19:57:16.353Z,1.70
2024-03-14T20:00:18.258Z,1.70
2024-03-14T20:03:20.186Z,2.63
2024-03-14T20:06:22.067Z,1.60
2024-03-14T20:09:24.063Z,2.17
2024-03-14T20:12:26.168Z,1.35
2024-03-14T20:15:28.112Z,1.35
2024-03-14T20:18:30.117Z,1.60
2024-03-14T20:21:32.094Z,1.27
2024-03-14T20:24:33.998Z,1.55
2024-03-14T20:27:36.122Z,1.70
2024-03-14T20:30:38.180Z,1.83
2024-03-14T20:33:40.207Z,1.55
2024-03-14T20:36:42.338Z,1.38
2024-03-14T20:39:44.383Z,1.48
2024-03-14T20:45:48.314Z,1.58
2024-03-14T20:48:51.341Z,1.52
2024-03-14T20:51:53.915Z,1.50
2024-03-14T20:54:57.207Z,1.45
2024-03-14T20:57:59.177Z,0.98
2024-03-14T21:04:02.894Z,1.25
2024-03-14T21:07:05.163Z,1.65
2024-03-14T21:10:14.001Z,1.35
2024-03-14T21:13:15.839Z,1.30
2024-03-14T21:16:17.833Z,1.42
2024-03-14T21:19:19.709Z,1.35
2024-03-14T21:22:21.505Z,1.38
2024-03-14T21:25:23.390Z,1.30
2024-03-14T21:28:25.525Z,1.10
2024-03-14T21:31:27.325Z,1.50
2024-03-14T21:34:29.306Z,1.20
2024-03-14T21:37:31.121Z,1.20
2024-03-14T21:40:33.011Z,1.30
2024-03-14T21:43:34.805Z,1.65
2024-03-14T21:46:36.668Z,1.50
2024-03-14T21:49:38.463Z,1.60
2024-03-14T21:52:40.291Z,1.23
2024-03-14T21:55:42.105Z,1.38
2024-03-14T21:58:52.988Z,1.38
2024-03-14T22:01:56.413Z,1.25
2024-03-14T22:04:58.311Z,1.50
2024-03-14T22:08:00.225Z,1.10
2024-03-14T22:11:02.039Z,1.30
2024-03-14T22:14:03.851Z,1.15
2024-03-14T22:17:05.724Z,1.20
2024-03-14T22:20:07.849Z,1.20
2024-03-14T22:23:09.728Z,1.17
2024-03-14T22:26:11.529Z,1.05
2024-03-14T22:29:13.403Z,1.05
2024-03-14T22:32:15.216Z,1.13
2024-03-14T22:35:17.086Z,1.10
2024-03-14T22:38:18.938Z,0.90
2024-03-14T22:41:20.829Z,0.90
2024-03-14T22:44:22.617Z,1.30
2024-03-14T22:47:24.506Z,1.10
2024-03-14T22:50:26.325Z,1.40
2024-03-14T22:53:28.207Z,1.42
2024-03-14T22:56:30.246Z,1.02
2024-03-14T22:59:32.359Z,1.00
2024-03-14T23:02:35.337Z,1.10
2024-03-14T23:05:37.189Z,0.80
2024-03-14T23:08:38.997Z,0.80
2024-03-14T23:11:41.107Z,0.90
2024-03-14T23:14:42.948Z,1.00
2024-03-14T23:17:44.906Z,1.00
2024-03-14T23:20:46.928Z,0.95
2024-03-14T23:23:48.866Z,1.02
2024-03-14T23:26:50.705Z,1.10
2024-03-14T23:29:52.782Z,1.08
2024-03-14T23:32:54.666Z,1.02
2024-03-14T23:35:56.560Z,1.30
2024-03-14T23:38:58.464Z,1.48
2024-03-14T23:42:00.433Z,1.23
2024-03-14T23:45:04.461Z,1.20
2024-03-14T23:48:07.070Z,1.10
2024-03-14T23:51:09.048Z,1.33
2024-03-14T23:54:16.152Z,1.30
2024-03-14T23:57:18.596Z,1.30
